sensor_id;sensor_type;location;lat;lon;timestamp;temperature;humidity
6357;DHT22;3211;53.452;-2.264;2023-09-19T00:00:32;11.80;99.90
6357;DHT22;3211;53.452;-2.264;2023-09-19T00:03:14;11.70;99.90
6357;DHT22;3211;53.452;-2.264;2023-09-19T00:05:58;11.70;1.00
6357;DHT22;3211;53.452;-2.264;2023-09-19T00:08:40;11.70;99.90
6357;DHT22;3211;53.452;-2.264;2023-09-19T00:11:24;11.70;99.90
6357;DHT22;3211;53.452;-2.264;2023-09-19T00:14:07;11.70;99.90
6357;DHT22;3211;53.452;-2.264;2023-09-19T00:16:51;11.80;99.90
6357;DHT22;3211;53.452;-2.264;2023-09-19T00:19:32;11.80;99.90
6357;DHT22;3211;53.452;-2.264;2023-09-19T00:22:14;11.80;99.90
6357;DHT22;3211;53.452;-2.264;2023-09-19T00:24:59;11.80;99.90
6357;DHT22;3211;53.452;-2.264;2023-09-19T00:27:41;11.80;99.90
6357;DHT22;3211;53.452;-2.264;2023-09-19T00:30:25;11.70;99.90
6357;DHT22;3211;53.452;-2.264;2023-09-19T00:33:08;11.70;99.90
6357;DHT22;3211;53.452;-2.264;2023-09-19T00:35:53;11.80;1.00
6357;DHT22;3211;53.452;-2.264;2023-09-19T00:38:35;11.70;1.00
6357;DHT22;3211;53.452;-2.264;2023-09-19T00:41:17;11.70;1.00
6357;DHT22;3211;53.452;-2.264;2023-09-19T00:43:59;11.80;1.00
6357;DHT22;3211;53.452;-2.264;2023-09-19T00:46:42;11.80;1.00
6357;DHT22;3211;53.452;-2.264;2023-09-19T00:49:25;11.80;1.00
6357;DHT22;3211;53.452;-2.264;2023-09-19T00:52:08;11.90;1.00
6357;DHT22;3211;53.452;-2.264;2023-09-19T00:54:51;11.80;99.90
6357;DHT22;3211;53.452;-2.264;2023-09-19T00:57:33;11.90;99.90
6357;DHT22;3211;53.452;-2.264;2023-09-19T01:00:16;11.90;99.90
6357;DHT22;3211;53.452;-2.264;2023-09-19T01:03:00;11.90;99.90
6357;DHT22;3211;53.452;-2.264;2023-09-19T01:05:44;11.90;99.90
6357;DHT22;3211;53.452;-2.264;2023-09-19T01:08:26;11.90;99.90
6357;DHT22;3211;53.452;-2.264;2023-09-19T01:11:14;12.00;99.90
6357;DHT22;3211;53.452;-2.264;2023-09-19T01:14:05;12.00;99.90
6357;DHT22;3211;53.452;-2.264;2023-09-19T01:17:00;12.00;1.00
6357;DHT22;3211;53.452;-2.264;2023-09-19T01:23:21;12.00;99.90
6357;DHT22;3211;53.452;-2.264;2023-09-19T01:26:17;12.00;99.90
6357;DHT22;3211;53.452;-2.264;2023-09-19T01:29:17;12.00;99.90
6357;DHT22;3211;53.452;-2.264;2023-09-19T01:32:13;12.00;1.00
6357;DHT22;3211;53.452;-2.264;2023-09-19T01:34:56;12.10;99.90
6357;DHT22;3211;53.452;-2.264;2023-09-19T01:37:45;12.10;99.90
6357;DHT22;3211;53.452;-2.264;2023-09-19T01:40:27;12.10;99.90
6357;DHT22;3211;53.452;-2.264;2023-09-19T01:43:12;12.00;99.90
6357;DHT22;3211;53.452;-2.264;2023-09-19T01:46:12;12.10;99.90
6357;DHT22;3211;53.452;-2.264;2023-09-19T01:49:04;12.10;99.90
6357;DHT22;3211;53.452;-2.264;2023-09-19T01:51:55;12.10;99.90
6357;DHT22;3211;53.452;-2.264;2023-09-19T01:54:41;12.10;99.90
6357;DHT22;3211;53.452;-2.264;2023-09-19T01:57:29;12.20;99.90
6357;DHT22;3211;53.452;-2.264;2023-09-19T02:00:14;12.20;99.90
6357;DHT22;3211;53.452;-2.264;2023-09-19T02:02:58;12.20;53.10
6357;DHT22;3211;53.452;-2.264;2023-09-19T02:05:48;12.30;96.80
6357;DHT22;3211;53.452;-2.264;2023-09-19T02:08:31;12.30;99.90
6357;DHT22;3211;53.452;-2.264;2023-09-19T02:11:15;12.30;8.40
6357;DHT22;3211;53.452;-2.264;2023-09-19T02:13:57;12.40;28.30
6357;DHT22;3211;53.452;-2.264;2023-09-19T02:16:40;12.30;86.80
6357;DHT22;3211;53.452;-2.264;2023-09-19T02:19:22;12.30;99.90
6357;DHT22;3211;53.452;-2.264;2023-09-19T02:22:06;12.30;99.90
6357;DHT22;3211;53.452;-2.264;2023-09-19T02:24:50;12.30;99.90
6357;DHT22;3211;53.452;-2.264;2023-09-19T02:27:33;12.20;99.90
6357;DHT22;3211;53.452;-2.264;2023-09-19T02:30:15;12.30;99.90
6357;DHT22;3211;53.452;-2.264;2023-09-19T02:33:01;12.10;99.90
6357;DHT22;3211;53.452;-2.264;2023-09-19T02:35:43;12.20;99.90
6357;DHT22;3211;53.452;-2.264;2023-09-19T02:38:29;12.10;99.90
6357;DHT22;3211;53.452;-2.264;2023-09-19T02:41:11;12.20;99.90
6357;DHT22;3211;53.452;-2.264;2023-09-19T02:43:53;12.20;99.90
6357;DHT22;3211;53.452;-2.264;2023-09-19T02:46:36;12.20;99.90
6357;DHT22;3211;53.452;-2.264;2023-09-19T02:49:18;12.20;99.90
6357;DHT22;3211;53.452;-2.264;2023-09-19T02:52:00;12.20;99.90
6357;DHT22;3211;53.452;-2.264;2023-09-19T02:54:45;12.30;99.90
6357;DHT22;3211;53.452;-2.264;2023-09-19T02:57:27;12.30;99.90
6357;DHT22;3211;53.452;-2.264;2023-09-19T03:00:10;12.20;99.90
6357;DHT22;3211;53.452;-2.264;2023-09-19T03:02:54;12.20;99.90
6357;DHT22;3211;53.452;-2.264;2023-09-19T03:05:36;12.20;1.00
6357;DHT22;3211;53.452;-2.264;2023-09-19T03:08:27;12.20;1.00
6357;DHT22;3211;53.452;-2.264;2023-09-19T03:11:10;12.10;1.00
6357;DHT22;3211;53.452;-2.264;2023-09-19T03:13:54;12.10;99.90
6357;DHT22;3211;53.452;-2.264;2023-09-19T03:16:36;12.00;99.90
6357;DHT22;3211;53.452;-2.264;2023-09-19T03:19:18;11.90;99.90
6357;DHT22;3211;53.452;-2.264;2023-09-19T03:22:01;11.90;1.00
6357;DHT22;3211;53.452;-2.264;2023-09-19T03:24:43;11.80;1.00
6357;DHT22;3211;53.452;-2.264;2023-09-19T03:27:30;11.80;1.00
6357;DHT22;3211;53.452;-2.264;2023-09-19T03:30:16;11.70;1.00
6357;DHT22;3211;53.452;-2.264;2023-09-19T03:33:02;11.70;1.00
6357;DHT22;3211;53.452;-2.264;2023-09-19T03:35:52;11.70;1.00
6357;DHT22;3211;53.452;-2.264;2023-09-19T03:38:34;11.70;1.00
6357;DHT22;3211;53.452;-2.264;2023-09-19T03:41:16;11.70;1.00
6357;DHT22;3211;53.452;-2.264;2023-09-19T03:44:00;11.70;1.00
6357;DHT22;3211;53.452;-2.264;2023-09-19T03:46:42;11.60;99.90
6357;DHT22;3211;53.452;-2.264;2023-09-19T03:49:24;11.70;99.90
6357;DHT22;3211;53.452;-2.264;2023-09-19T03:52:06;11.70;1.00
6357;DHT22;3211;53.452;-2.264;2023-09-19T03:54:48;11.60;1.00
6357;DHT22;3211;53.452;-2.264;2023-09-19T03:57:30;11.60;1.00
6357;DHT22;3211;53.452;-2.264;2023-09-19T04:00:14;11.60;1.00
6357;DHT22;3211;53.452;-2.264;2023-09-19T04:02:59;11.50;1.00
6357;DHT22;3211;53.452;-2.264;2023-09-19T04:05:42;11.50;1.00
6357;DHT22;3211;53.452;-2.264;2023-09-19T04:08:24;11.50;1.00
6357;DHT22;3211;53.452;-2.264;2023-09-19T04:11:06;11.50;14.50
6357;DHT22;3211;53.452;-2.264;2023-09-19T04:13:51;11.40;58.80
6357;DHT22;3211;53.452;-2.264;2023-09-19T04:16:34;11.40;95.90
6357;DHT22;3211;53.452;-2.264;2023-09-19T04:19:16;11.40;69.70
6357;DHT22;3211;53.452;-2.264;2023-09-19T04:21:58;11.30;99.90
6357;DHT22;3211;53.452;-2.264;2023-09-19T04:24:40;11.30;99.90
6357;DHT22;3211;53.452;-2.264;2023-09-19T04:27:22;11.30;99.90
6357;DHT22;3211;53.452;-2.264;2023-09-19T04:30:05;11.40;99.90
6357;DHT22;3211;53.452;-2.264;2023-09-19T04:32:53;11.30;99.90
6357;DHT22;3211;53.452;-2.264;2023-09-19T04:35:35;11.30;99.90
6357;DHT22;3211;53.452;-2.264;2023-09-19T04:38:17;11.30;99.90
6357;DHT22;3211;53.452;-2.264;2023-09-19T04:40:59;11.30;99.90
6357;DHT22;3211;53.452;-2.264;2023-09-19T04:43:41;11.40;99.90
6357;DHT22;3211;53.452;-2.264;2023-09-19T04:46:23;11.30;99.90
6357;DHT22;3211;53.452;-2.264;2023-09-19T04:49:06;11.30;99.90
6357;DHT22;3211;53.452;-2.264;2023-09-19T04:51:48;11.30;99.90
6357;DHT22;3211;53.452;-2.264;2023-09-19T04:54:30;11.30;99.90
6357;DHT22;3211;53.452;-2.264;2023-09-19T04:57:12;11.30;99.90
6357;DHT22;3211;53.452;-2.264;2023-09-19T04:59:54;11.30;99.90
6357;DHT22;3211;53.452;-2.264;2023-09-19T05:02:36;11.30;99.90
6357;DHT22;3211;53.452;-2.264;2023-09-19T05:05:19;11.30;99.90
6357;DHT22;3211;53.452;-2.264;2023-09-19T05:08:03;11.30;99.90
6357;DHT22;3211;53.452;-2.264;2023-09-19T05:10:46;11.40;99.90
6357;DHT22;3211;53.452;-2.264;2023-09-19T05:13:27;11.40;99.90
6357;DHT22;3211;53.452;-2.264;2023-09-19T05:16:09;11.40;99.90
6357;DHT22;3211;53.452;-2.264;2023-09-19T05:18:51;11.30;99.90
6357;DHT22;3211;53.452;-2.264;2023-09-19T05:21:35;11.40;99.90
6357;DHT22;3211;53.452;-2.264;2023-09-19T05:24:17;11.40;99.90
6357;DHT22;3211;53.452;-2.264;2023-09-19T05:26:58;11.40;99.90
6357;DHT22;3211;53.452;-2.264;2023-09-19T05:29:41;11.40;99.90
6357;DHT22;3211;53.452;-2.264;2023-09-19T05:32:23;11.50;99.90
6357;DHT22;3211;53.452;-2.264;2023-09-19T05:35:05;11.50;99.90
6357;DHT22;3211;53.452;-2.264;2023-09-19T05:37:52;11.60;99.90
6357;DHT22;3211;53.452;-2.264;2023-09-19T05:40:35;11.70;99.90
6357;DHT22;3211;53.452;-2.264;2023-09-19T05:43:19;11.70;99.90
6357;DHT22;3211;53.452;-2.264;2023-09-19T05:46:01;11.80;99.90
6357;DHT22;3211;53.452;-2.264;2023-09-19T05:48:43;11.90;99.90
6357;DHT22;3211;53.452;-2.264;2023-09-19T05:51:28;11.90;99.90
6357;DHT22;3211;53.452;-2.264;2023-09-19T05:54:11;12.00;99.90
6357;DHT22;3211;53.452;-2.264;2023-09-19T05:56:53;12.00;99.90
6357;DHT22;3211;53.452;-2.264;2023-09-19T05:59:35;12.10;99.90
6357;DHT22;3211;53.452;-2.264;2023-09-19T06:02:17;12.10;99.90
6357;DHT22;3211;53.452;-2.264;2023-09-19T06:05:00;12.20;99.90
6357;DHT22;3211;53.452;-2.264;2023-09-19T06:07:42;12.20;99.90
6357;DHT22;3211;53.452;-2.264;2023-09-19T06:10:26;12.30;99.90
6357;DHT22;3211;53.452;-2.264;2023-09-19T06:13:08;12.30;99.90
6357;DHT22;3211;53.452;-2.264;2023-09-19T06:15:51;12.40;99.90
6357;DHT22;3211;53.452;-2.264;2023-09-19T06:18:33;12.50;99.90
6357;DHT22;3211;53.452;-2.264;2023-09-19T06:21:15;12.50;99.90
6357;DHT22;3211;53.452;-2.264;2023-09-19T06:23:57;12.60;99.90
6357;DHT22;3211;53.452;-2.264;2023-09-19T06:26:41;12.60;99.90
6357;DHT22;3211;53.452;-2.264;2023-09-19T06:29:25;12.60;99.90
6357;DHT22;3211;53.452;-2.264;2023-09-19T06:32:07;12.60;99.90
6357;DHT22;3211;53.452;-2.264;2023-09-19T06:34:52;12.70;99.90
6357;DHT22;3211;53.452;-2.264;2023-09-19T06:37:35;12.70;99.90
6357;DHT22;3211;53.452;-2.264;2023-09-19T06:40:19;12.80;99.90
6357;DHT22;3211;53.452;-2.264;2023-09-19T06:43:03;12.80;99.90
6357;DHT22;3211;53.452;-2.264;2023-09-19T06:45:46;12.80;99.90
6357;DHT22;3211;53.452;-2.264;2023-09-19T06:48:28;12.90;99.90
6357;DHT22;3211;53.452;-2.264;2023-09-19T06:51:11;12.90;99.90
6357;DHT22;3211;53.452;-2.264;2023-09-19T06:53:56;12.90;99.90
6357;DHT22;3211;53.452;-2.264;2023-09-19T06:56:39;13.00;99.90
6357;DHT22;3211;53.452;-2.264;2023-09-19T06:59:23;13.00;99.90
6357;DHT22;3211;53.452;-2.264;2023-09-19T07:02:05;13.00;99.90
6357;DHT22;3211;53.452;-2.264;2023-09-19T07:04:47;13.00;99.90
6357;DHT22;3211;53.452;-2.264;2023-09-19T07:07:30;13.00;99.90
6357;DHT22;3211;53.452;-2.264;2023-09-19T07:10:15;13.00;99.90
6357;DHT22;3211;53.452;-2.264;2023-09-19T07:12:58;13.10;99.90
6357;DHT22;3211;53.452;-2.264;2023-09-19T07:15:43;13.10;99.90
6357;DHT22;3211;53.452;-2.264;2023-09-19T07:18:27;13.20;99.90
6357;DHT22;3211;53.452;-2.264;2023-09-19T07:21:09;13.20;99.90
6357;DHT22;3211;53.452;-2.264;2023-09-19T07:23:56;13.20;99.90
6357;DHT22;3211;53.452;-2.264;2023-09-19T07:26:37;13.30;99.90
6357;DHT22;3211;53.452;-2.264;2023-09-19T07:29:20;13.40;99.90
6357;DHT22;3211;53.452;-2.264;2023-09-19T07:32:04;13.40;99.90
6357;DHT22;3211;53.452;-2.264;2023-09-19T07:34:49;13.50;99.90
6357;DHT22;3211;53.452;-2.264;2023-09-19T07:37:31;13.60;99.90
6357;DHT22;3211;53.452;-2.264;2023-09-19T07:40:14;13.60;99.90
6357;DHT22;3211;53.452;-2.264;2023-09-19T07:42:56;13.70;99.90
6357;DHT22;3211;53.452;-2.264;2023-09-19T07:45:41;13.80;99.90
6357;DHT22;3211;53.452;-2.264;2023-09-19T07:48:25;13.90;99.90
6357;DHT22;3211;53.452;-2.264;2023-09-19T07:51:07;13.90;99.90
6357;DHT22;3211;53.452;-2.264;2023-09-19T07:53:49;14.00;99.90
6357;DHT22;3211;53.452;-2.264;2023-09-19T07:56:31;14.10;99.90
6357;DHT22;3211;53.452;-2.264;2023-09-19T07:59:14;14.10;99.90
6357;DHT22;3211;53.452;-2.264;2023-09-19T08:01:56;14.20;99.90
6357;DHT22;3211;53.452;-2.264;2023-09-19T08:04:40;14.30;99.90
6357;DHT22;3211;53.452;-2.264;2023-09-19T08:07:22;14.40;99.90
6357;DHT22;3211;53.452;-2.264;2023-09-19T08:10:05;14.50;99.90
6357;DHT22;3211;53.452;-2.264;2023-09-19T08:12:48;14.60;99.90
6357;DHT22;3211;53.452;-2.264;2023-09-19T08:15:37;14.60;99.90
6357;DHT22;3211;53.452;-2.264;2023-09-19T08:18:24;14.60;99.90
6357;DHT22;3211;53.452;-2.264;2023-09-19T08:21:11;14.70;99.90
6357;DHT22;3211;53.452;-2.264;2023-09-19T08:23:55;14.80;99.90
6357;DHT22;3211;53.452;-2.264;2023-09-19T08:26:37;14.80;99.90
6357;DHT22;3211;53.452;-2.264;2023-09-19T08:29:19;14.80;99.90
6357;DHT22;3211;53.452;-2.264;2023-09-19T08:32:01;14.90;99.90
6357;DHT22;3211;53.452;-2.264;2023-09-19T08:34:43;14.90;99.90
6357;DHT22;3211;53.452;-2.264;2023-09-19T08:37:26;14.90;99.90
6357;DHT22;3211;53.452;-2.264;2023-09-19T08:40:09;15.00;99.90
6357;DHT22;3211;53.452;-2.264;2023-09-19T08:42:55;15.10;99.90
6357;DHT22;3211;53.452;-2.264;2023-09-19T08:45:37;15.10;99.90
6357;DHT22;3211;53.452;-2.264;2023-09-19T08:48:23;15.20;99.90
6357;DHT22;3211;53.452;-2.264;2023-09-19T08:51:07;15.30;99.90
6357;DHT22;3211;53.452;-2.264;2023-09-19T08:54:01;15.30;99.90
6357;DHT22;3211;53.452;-2.264;2023-09-19T08:56:46;15.40;99.90
6357;DHT22;3211;53.452;-2.264;2023-09-19T08:59:29;15.50;99.90
6357;DHT22;3211;53.452;-2.264;2023-09-19T09:02:12;15.50;99.90
6357;DHT22;3211;53.452;-2.264;2023-09-19T09:04:57;15.60;99.90
6357;DHT22;3211;53.452;-2.264;2023-09-19T09:07:40;15.70;99.90
6357;DHT22;3211;53.452;-2.264;2023-09-19T09:10:23;15.70;99.90
6357;DHT22;3211;53.452;-2.264;2023-09-19T09:13:06;15.80;99.90
6357;DHT22;3211;53.452;-2.264;2023-09-19T09:15:48;15.80;99.90
6357;DHT22;3211;53.452;-2.264;2023-09-19T09:18:31;15.80;99.90
6357;DHT22;3211;53.452;-2.264;2023-09-19T09:21:13;15.90;99.90
6357;DHT22;3211;53.452;-2.264;2023-09-19T09:23:56;15.90;99.90
6357;DHT22;3211;53.452;-2.264;2023-09-19T09:26:42;15.90;99.90
6357;DHT22;3211;53.452;-2.264;2023-09-19T09:29:41;16.00;99.90
6357;DHT22;3211;53.452;-2.264;2023-09-19T09:32:25;16.00;99.90
6357;DHT22;3211;53.452;-2.264;2023-09-19T09:35:10;16.10;99.90
6357;DHT22;3211;53.452;-2.264;2023-09-19T09:37:59;16.10;99.90
6357;DHT22;3211;53.452;-2.264;2023-09-19T09:40:48;16.20;99.90
6357;DHT22;3211;53.452;-2.264;2023-09-19T09:43:41;16.20;99.90
6357;DHT22;3211;53.452;-2.264;2023-09-19T09:46:25;16.30;99.90
6357;DHT22;3211;53.452;-2.264;2023-09-19T09:49:39;16.30;99.90
6357;DHT22;3211;53.452;-2.264;2023-09-19T09:52:21;16.30;99.90
6357;DHT22;3211;53.452;-2.264;2023-09-19T09:55:05;16.30;99.90
6357;DHT22;3211;53.452;-2.264;2023-09-19T09:58:02;16.30;99.90
6357;DHT22;3211;53.452;-2.264;2023-09-19T10:00:59;16.30;99.90
6357;DHT22;3211;53.452;-2.264;2023-09-19T10:03:49;16.30;99.90
6357;DHT22;3211;53.452;-2.264;2023-09-19T10:06:40;16.30;99.90
6357;DHT22;3211;53.452;-2.264;2023-09-19T10:09:28;16.30;99.90
6357;DHT22;3211;53.452;-2.264;2023-09-19T10:12:11;16.40;99.90
6357;DHT22;3211;53.452;-2.264;2023-09-19T10:14:56;16.40;99.90
6357;DHT22;3211;53.452;-2.264;2023-09-19T10:17:43;16.40;99.90
6357;DHT22;3211;53.452;-2.264;2023-09-19T10:20:26;16.40;99.90
6357;DHT22;3211;53.452;-2.264;2023-09-19T10:23:18;16.50;99.90
6357;DHT22;3211;53.452;-2.264;2023-09-19T10:26:03;16.50;99.90
6357;DHT22;3211;53.452;-2.264;2023-09-19T10:28:48;16.50;99.90
6357;DHT22;3211;53.452;-2.264;2023-09-19T10:31:32;16.50;99.90
6357;DHT22;3211;53.452;-2.264;2023-09-19T10:34:17;16.50;99.90
6357;DHT22;3211;53.452;-2.264;2023-09-19T10:37:00;16.50;99.90
6357;DHT22;3211;53.452;-2.264;2023-09-19T10:39:47;16.50;99.90
6357;DHT22;3211;53.452;-2.264;2023-09-19T10:42:31;16.50;99.90
6357;DHT22;3211;53.452;-2.264;2023-09-19T10:45:16;16.60;99.90
6357;DHT22;3211;53.452;-2.264;2023-09-19T10:48:01;16.60;99.90
6357;DHT22;3211;53.452;-2.264;2023-09-19T10:50:50;16.70;99.90
6357;DHT22;3211;53.452;-2.264;2023-09-19T10:53:41;16.70;99.90
6357;DHT22;3211;53.452;-2.264;2023-09-19T10:56:29;16.70;99.90
6357;DHT22;3211;53.452;-2.264;2023-09-19T10:59:15;16.80;99.90
6357;DHT22;3211;53.452;-2.264;2023-09-19T11:01:59;16.80;99.90
6357;DHT22;3211;53.452;-2.264;2023-09-19T11:04:42;16.80;99.90
6357;DHT22;3211;53.452;-2.264;2023-09-19T11:07:27;16.90;99.90
6357;DHT22;3211;53.452;-2.264;2023-09-19T11:10:46;16.90;99.90
6357;DHT22;3211;53.452;-2.264;2023-09-19T11:13:29;16.90;99.90
6357;DHT22;3211;53.452;-2.264;2023-09-19T11:16:18;16.90;99.90
6357;DHT22;3211;53.452;-2.264;2023-09-19T11:19:04;16.90;99.90
6357;DHT22;3211;53.452;-2.264;2023-09-19T11:21:53;16.90;99.90
6357;DHT22;3211;53.452;-2.264;2023-09-19T11:24:38;17.00;99.90
6357;DHT22;3211;53.452;-2.264;2023-09-19T11:27:20;17.00;99.90
6357;DHT22;3211;53.452;-2.264;2023-09-19T11:30:26;17.00;99.90
6357;DHT22;3211;53.452;-2.264;2023-09-19T11:33:17;17.10;99.90
6357;DHT22;3211;53.452;-2.264;2023-09-19T11:36:03;17.10;99.90
6357;DHT22;3211;53.452;-2.264;2023-09-19T11:38:58;17.10;99.90
6357;DHT22;3211;53.452;-2.264;2023-09-19T11:41:43;17.10;99.90
6357;DHT22;3211;53.452;-2.264;2023-09-19T11:44:36;17.10;99.90
6357;DHT22;3211;53.452;-2.264;2023-09-19T11:47:19;17.10;99.90
6357;DHT22;3211;53.452;-2.264;2023-09-19T11:50:03;17.10;99.90
6357;DHT22;3211;53.452;-2.264;2023-09-19T11:52:53;17.10;99.90
6357;DHT22;3211;53.452;-2.264;2023-09-19T11:55:36;17.10;99.90
6357;DHT22;3211;53.452;-2.264;2023-09-19T11:58:20;17.10;99.90
6357;DHT22;3211;53.452;-2.264;2023-09-19T12:01:05;17.10;99.90
6357;DHT22;3211;53.452;-2.264;2023-09-19T12:03:55;17.10;99.90
6357;DHT22;3211;53.452;-2.264;2023-09-19T12:06:38;17.10;99.90
6357;DHT22;3211;53.452;-2.264;2023-09-19T12:09:25;17.00;99.90
6357;DHT22;3211;53.452;-2.264;2023-09-19T12:12:08;17.10;99.90
6357;DHT22;3211;53.452;-2.264;2023-09-19T12:14:54;17.10;99.90
6357;DHT22;3211;53.452;-2.264;2023-09-19T12:17:38;17.00;99.90
6357;DHT22;3211;53.452;-2.264;2023-09-19T12:20:21;17.10;99.90
6357;DHT22;3211;53.452;-2.264;2023-09-19T12:23:13;17.10;99.90
6357;DHT22;3211;53.452;-2.264;2023-09-19T12:25:55;17.10;99.90
6357;DHT22;3211;53.452;-2.264;2023-09-19T12:28:41;17.10;99.90
6357;DHT22;3211;53.452;-2.264;2023-09-19T12:31:25;17.10;99.90
6357;DHT22;3211;53.452;-2.264;2023-09-19T12:34:08;17.10;99.90
6357;DHT22;3211;53.452;-2.264;2023-09-19T12:37:04;17.10;99.90
6357;DHT22;3211;53.452;-2.264;2023-09-19T12:39:52;17.10;99.90
6357;DHT22;3211;53.452;-2.264;2023-09-19T12:42:35;17.20;99.90
6357;DHT22;3211;53.452;-2.264;2023-09-19T12:45:17;17.20;99.90
6357;DHT22;3211;53.452;-2.264;2023-09-19T12:48:22;17.30;99.90
6357;DHT22;3211;53.452;-2.264;2023-09-19T12:51:11;17.20;99.90
6357;DHT22;3211;53.452;-2.264;2023-09-19T12:53:58;17.20;99.90
6357;DHT22;3211;53.452;-2.264;2023-09-19T12:56:40;17.30;99.90
6357;DHT22;3211;53.452;-2.264;2023-09-19T12:59:29;17.30;99.90
6357;DHT22;3211;53.452;-2.264;2023-09-19T13:02:13;17.30;99.90
6357;DHT22;3211;53.452;-2.264;2023-09-19T13:05:00;17.30;99.90
6357;DHT22;3211;53.452;-2.264;2023-09-19T13:07:47;17.30;99.90
6357;DHT22;3211;53.452;-2.264;2023-09-19T13:10:30;17.40;99.90
6357;DHT22;3211;53.452;-2.264;2023-09-19T13:13:24;17.40;99.90
6357;DHT22;3211;53.452;-2.264;2023-09-19T13:16:09;17.40;99.90
6357;DHT22;3211;53.452;-2.264;2023-09-19T13:18:55;17.40;99.90
6357;DHT22;3211;53.452;-2.264;2023-09-19T13:21:39;17.40;99.90
6357;DHT22;3211;53.452;-2.264;2023-09-19T13:24:30;17.50;99.90
6357;DHT22;3211;53.452;-2.264;2023-09-19T13:27:13;17.60;99.90
6357;DHT22;3211;53.452;-2.264;2023-09-19T13:29:55;17.60;99.90
6357;DHT22;3211;53.452;-2.264;2023-09-19T13:32:38;17.70;99.90
6357;DHT22;3211;53.452;-2.264;2023-09-19T13:35:21;17.70;99.90
6357;DHT22;3211;53.452;-2.264;2023-09-19T13:38:04;17.90;99.90
6357;DHT22;3211;53.452;-2.264;2023-09-19T13:40:47;17.90;99.90
6357;DHT22;3211;53.452;-2.264;2023-09-19T13:43:30;17.90;99.90
6357;DHT22;3211;53.452;-2.264;2023-09-19T13:46:12;17.90;99.90
6357;DHT22;3211;53.452;-2.264;2023-09-19T13:48:56;17.80;99.90
6357;DHT22;3211;53.452;-2.264;2023-09-19T13:51:39;17.80;99.90
6357;DHT22;3211;53.452;-2.264;2023-09-19T13:54:25;17.80;99.90
6357;DHT22;3211;53.452;-2.264;2023-09-19T13:57:07;17.80;99.90
6357;DHT22;3211;53.452;-2.264;2023-09-19T13:59:51;17.80;99.90
6357;DHT22;3211;53.452;-2.264;2023-09-19T14:02:35;17.60;99.90
6357;DHT22;3211;53.452;-2.264;2023-09-19T14:05:17;17.40;99.90
6357;DHT22;3211;53.452;-2.264;2023-09-19T14:07:59;17.30;99.90
6357;DHT22;3211;53.452;-2.264;2023-09-19T14:10:45;17.30;99.90
6357;DHT22;3211;53.452;-2.264;2023-09-19T14:13:27;17.20;99.90
6357;DHT22;3211;53.452;-2.264;2023-09-19T14:16:09;17.30;99.90
6357;DHT22;3211;53.452;-2.264;2023-09-19T14:18:51;17.40;99.90
6357;DHT22;3211;53.452;-2.264;2023-09-19T14:21:33;17.50;99.90
6357;DHT22;3211;53.452;-2.264;2023-09-19T14:24:17;17.50;99.90
6357;DHT22;3211;53.452;-2.264;2023-09-19T14:27:00;17.50;99.90
6357;DHT22;3211;53.452;-2.264;2023-09-19T14:29:44;17.60;99.90
6357;DHT22;3211;53.452;-2.264;2023-09-19T14:32:26;17.70;99.90
6357;DHT22;3211;53.452;-2.264;2023-09-19T14:35:08;17.70;99.90
6357;DHT22;3211;53.452;-2.264;2023-09-19T14:37:51;17.90;99.90
6357;DHT22;3211;53.452;-2.264;2023-09-19T14:40:33;18.00;99.90
6357;DHT22;3211;53.452;-2.264;2023-09-19T14:43:18;17.90;99.90
6357;DHT22;3211;53.452;-2.264;2023-09-19T14:46:03;17.80;99.90
6357;DHT22;3211;53.452;-2.264;2023-09-19T14:48:44;17.90;99.90
6357;DHT22;3211;53.452;-2.264;2023-09-19T14:51:29;17.80;99.90
6357;DHT22;3211;53.452;-2.264;2023-09-19T14:54:11;17.70;99.90
6357;DHT22;3211;53.452;-2.264;2023-09-19T14:56:54;17.80;94.40
6357;DHT22;3211;53.452;-2.264;2023-09-19T14:59:46;17.80;56.30
6357;DHT22;3211;53.452;-2.264;2023-09-19T15:02:28;17.80;1.00
6357;DHT22;3211;53.452;-2.264;2023-09-19T15:05:10;17.80;1.00
6357;DHT22;3211;53.452;-2.264;2023-09-19T15:07:52;17.80;1.00
6357;DHT22;3211;53.452;-2.264;2023-09-19T15:10:34;17.70;15.10
6357;DHT22;3211;53.452;-2.264;2023-09-19T15:13:17;17.70;1.00
6357;DHT22;3211;53.452;-2.264;2023-09-19T15:16:01;17.70;21.00
6357;DHT22;3211;53.452;-2.264;2023-09-19T15:18:44;17.70;1.00
6357;DHT22;3211;53.452;-2.264;2023-09-19T15:21:28;17.70;60.50
6357;DHT22;3211;53.452;-2.264;2023-09-19T15:24:10;17.70;15.80
6357;DHT22;3211;53.452;-2.264;2023-09-19T15:26:52;17.70;1.00
6357;DHT22;3211;53.452;-2.264;2023-09-19T15:29:36;17.80;1.00
6357;DHT22;3211;53.452;-2.264;2023-09-19T15:32:21;17.80;1.00
6357;DHT22;3211;53.452;-2.264;2023-09-19T15:35:03;17.90;1.00
6357;DHT22;3211;53.452;-2.264;2023-09-19T15:37:46;17.90;1.00
6357;DHT22;3211;53.452;-2.264;2023-09-19T15:40:28;17.90;1.00
6357;DHT22;3211;53.452;-2.264;2023-09-19T15:43:10;17.80;16.20
6357;DHT22;3211;53.452;-2.264;2023-09-19T15:45:52;17.80;4.90
6357;DHT22;3211;53.452;-2.264;2023-09-19T15:48:36;17.90;1.00
6357;DHT22;3211;53.452;-2.264;2023-09-19T15:51:18;17.90;1.00
6357;DHT22;3211;53.452;-2.264;2023-09-19T15:54:01;18.00;1.00
6357;DHT22;3211;53.452;-2.264;2023-09-19T15:56:45;18.00;1.00
6357;DHT22;3211;53.452;-2.264;2023-09-19T15:59:29;18.00;1.00
6357;DHT22;3211;53.452;-2.264;2023-09-19T16:02:11;18.10;1.00
6357;DHT22;3211;53.452;-2.264;2023-09-19T16:04:55;18.10;99.90
6357;DHT22;3211;53.452;-2.264;2023-09-19T16:07:38;18.20;99.90
6357;DHT22;3211;53.452;-2.264;2023-09-19T16:10:20;18.20;99.90
6357;DHT22;3211;53.452;-2.264;2023-09-19T16:13:02;18.10;99.90
6357;DHT22;3211;53.452;-2.264;2023-09-19T16:15:45;18.10;99.90
6357;DHT22;3211;53.452;-2.264;2023-09-19T16:18:27;18.20;99.90
6357;DHT22;3211;53.452;-2.264;2023-09-19T16:21:10;18.20;99.90
6357;DHT22;3211;53.452;-2.264;2023-09-19T16:23:52;18.20;99.90
6357;DHT22;3211;53.452;-2.264;2023-09-19T16:26:35;18.10;99.90
6357;DHT22;3211;53.452;-2.264;2023-09-19T16:29:18;18.10;99.90
6357;DHT22;3211;53.452;-2.264;2023-09-19T16:32:02;18.10;99.90
6357;DHT22;3211;53.452;-2.264;2023-09-19T16:34:44;18.10;99.90
6357;DHT22;3211;53.452;-2.264;2023-09-19T16:37:27;18.00;99.90
6357;DHT22;3211;53.452;-2.264;2023-09-19T16:40:10;18.10;99.90
6357;DHT22;3211;53.452;-2.264;2023-09-19T16:42:54;18.20;99.90
6357;DHT22;3211;53.452;-2.264;2023-09-19T16:45:36;18.30;99.90
6357;DHT22;3211;53.452;-2.264;2023-09-19T16:48:20;18.80;83.10
6357;DHT22;3211;53.452;-2.264;2023-09-19T16:51:03;19.20;1.00
6357;DHT22;3211;53.452;-2.264;2023-09-19T16:53:47;19.10;1.00
6357;DHT22;3211;53.452;-2.264;2023-09-19T16:56:33;18.80;1.00
6357;DHT22;3211;53.452;-2.264;2023-09-19T16:59:17;18.60;99.90
6357;DHT22;3211;53.452;-2.264;2023-09-19T17:02:00;18.30;99.90
6357;DHT22;3211;53.452;-2.264;2023-09-19T17:04:42;18.10;1.00
6357;DHT22;3211;53.452;-2.264;2023-09-19T17:07:24;18.00;1.00
6357;DHT22;3211;53.452;-2.264;2023-09-19T17:10:09;18.00;28.80
6357;DHT22;3211;53.452;-2.264;2023-09-19T17:12:52;17.90;18.10
6357;DHT22;3211;53.452;-2.264;2023-09-19T17:15:34;17.90;16.60
6357;DHT22;3211;53.452;-2.264;2023-09-19T17:18:16;17.90;65.10
6357;DHT22;3211;53.452;-2.264;2023-09-19T17:20:59;17.80;64.10
6357;DHT22;3211;53.452;-2.264;2023-09-19T17:23:41;17.80;81.30
6357;DHT22;3211;53.452;-2.264;2023-09-19T17:26:25;17.80;51.70
6357;DHT22;3211;53.452;-2.264;2023-09-19T17:29:07;17.80;49.10
6357;DHT22;3211;53.452;-2.264;2023-09-19T17:31:50;17.80;57.90
6357;DHT22;3211;53.452;-2.264;2023-09-19T17:34:32;17.70;96.20
6357;DHT22;3211;53.452;-2.264;2023-09-19T17:37:15;17.70;43.70
6357;DHT22;3211;53.452;-2.264;2023-09-19T17:39:57;17.70;94.60